Time;durP1;ratioP1;P1;durP2;ratioP2;P2;SDS_P1;SDS_P2;PMS_P1;PMS_P2;Temp;Humidity;BMP_temperature;BMP_pressure;BME280_temperature;BME280_humidity;BME280_pressure;Samples;Min_cycle;Max_cycle;Signal;HPM_P1;HPM_P2
2023/05/27 00:01:51;;;;;;;21.73;5.20;;;13.70;99.90;;;;;;7281624;19;20193;-87
2023/05/27 00:04:17;;;;;;;20.10;4.90;;;13.40;99.90;;;;;;7285742;19;20193;-86
2023/05/27 00:06:42;;;;;;;22.77;5.03;;;13.30;99.90;;;;;;7287370;19;20202;-87
2023/05/27 00:09:09;;;;;;;21.50;4.50;;;13.30;99.90;;;;;;7284496;19;21000;-86
2023/05/27 00:11:35;;;;;;;22.13;4.90;;;13.30;99.90;;;;;;7283787;19;20194;-85
2023/05/27 00:14:01;;;;;;;22.20;4.73;;;13.30;99.90;;;;;;7307766;19;20199;-86
2023/05/27 00:16:27;;;;;;;25.53;5.37;;;13.30;99.90;;;;;;7284891;19;20444;-86
2023/05/27 00:18:53;;;;;;;22.77;4.90;;;13.40;99.90;;;;;;7284686;19;20211;-86
2023/05/27 00:21:19;;;;;;;24.83;5.37;;;13.30;99.90;;;;;;7285623;19;20257;-86
2023/05/27 00:23:51;;;;;;;25.37;5.70;;;13.30;99.90;;;;;;7284089;19;20195;-85
2023/05/27 00:26:17;;;;;;;23.77;4.63;;;13.20;99.90;;;;;;7285390;19;20201;-86
2023/05/27 00:28:47;;;;;;;22.73;5.07;;;13.30;99.90;;;;;;7283963;19;20191;-86
2023/05/27 00:31:13;;;;;;;22.10;5.13;;;13.20;99.90;;;;;;7284221;19;20267;-86
2023/05/27 00:33:39;;;;;;;20.30;4.90;;;13.30;99.90;;;;;;7285891;19;20185;-87
2023/05/27 00:36:05;;;;;;;25.37;4.90;;;13.20;99.90;;;;;;7284641;19;21052;-85
2023/05/27 00:38:31;;;;;;;22.57;5.07;;;13.20;99.90;;;;;;7307530;19;20292;-87
2023/05/27 00:40:59;;;;;;;21.07;5.13;;;13.10;99.90;;;;;;7285916;19;20186;-86
2023/05/27 00:43:25;;;;;;;23.00;5.00;;;13.00;99.90;;;;;;7284311;19;20191;-86
2023/05/27 00:45:51;;;;;;;25.03;5.57;;;13.00;99.90;;;;;;7284689;19;20607;-84
2023/05/27 00:48:17;;;;;;;22.20;5.73;;;13.00;99.90;;;;;;7283559;19;20208;-85
2023/05/27 00:50:42;;;;;;;21.17;5.43;;;12.90;99.90;;;;;;7282220;19;20203;-86
2023/05/27 00:53:08;;;;;;;21.07;5.67;;;12.90;99.90;;;;;;7284921;19;20177;-86
2023/05/27 00:55:34;;;;;;;19.77;4.83;;;12.80;99.90;;;;;;7291122;19;20195;-85
2023/05/27 00:58:00;;;;;;;22.93;5.43;;;12.80;99.90;;;;;;7306192;19;20185;-86
2023/05/27 01:00:26;;;;;;;20.47;5.80;;;12.80;99.90;;;;;;7284883;19;20638;-86
2023/05/27 01:02:52;;;;;;;23.40;4.97;;;12.80;99.90;;;;;;7283252;19;20289;-86
2023/05/27 01:05:18;;;;;;;26.60;5.77;;;12.70;99.90;;;;;;7284247;19;20200;-85
2023/05/27 01:08:05;;;;;;;24.57;5.30;;;12.70;99.90;;;;;;7290133;19;20236;-86
2023/05/27 01:10:36;;;;;;;19.77;5.37;;;12.60;99.90;;;;;;7290215;19;20275;-86
2023/05/27 01:13:27;;;;;;;22.23;5.50;;;12.60;99.90;;;;;;7292657;19;20202;-86
2023/05/27 01:15:54;;;;;;;19.70;5.13;;;12.60;99.90;;;;;;7188238;19;2004679;-87
2023/05/27 01:18:23;;;;;;;23.20;4.97;;;12.40;99.90;;;;;;7290575;19;20188;-86
2023/05/27 01:20:53;;;;;;;23.90;5.37;;;12.40;99.90;;;;;;7290913;19;20213;-86
2023/05/27 01:23:19;;;;;;;20.60;5.20;;;12.50;99.90;;;;;;7289263;19;20181;-86
2023/05/27 01:25:45;;;;;;;27.03;5.73;;;12.30;99.90;;;;;;7290021;19;20196;-86
2023/05/27 01:28:11;;;;;;;18.10;4.60;;;12.30;99.90;;;;;;7288698;19;20688;-86
2023/05/27 01:30:37;;;;;;;24.40;5.60;;;12.30;99.90;;;;;;7287126;19;20189;-86
2023/05/27 01:33:20;;;;;;;25.87;5.50;;;12.30;99.90;;;;;;7308069;19;20195;-83
2023/05/27 01:35:58;;;;;;;28.87;6.07;;;12.20;99.90;;;;;;7287642;19;21744;-86
2023/05/27 01:38:26;;;;;;;21.50;5.13;;;12.30;99.90;;;;;;7287397;19;20205;-86
2023/05/27 01:40:52;;;;;;;20.73;5.27;;;12.30;99.90;;;;;;7288747;19;20224;-86
2023/05/27 01:43:18;;;;;;;24.27;5.43;;;12.10;99.90;;;;;;7286701;19;20193;-86
2023/05/27 01:45:44;;;;;;;25.37;5.63;;;12.20;99.90;;;;;;7287955;19;20617;-84
2023/05/27 01:48:10;;;;;;;22.03;4.87;;;12.30;99.90;;;;;;7287296;19;20187;-86
2023/05/27 01:50:37;;;;;;;21.53;5.10;;;12.20;99.90;;;;;;7285052;19;20191;-86
2023/05/27 01:53:04;;;;;;;23.37;5.47;;;12.10;99.90;;;;;;7302603;19;20181;-85
2023/05/27 01:55:30;;;;;;;23.33;6.03;;;12.10;99.90;;;;;;7304974;19;20663;-87
2023/05/27 01:57:57;;;;;;;28.37;5.23;;;12.10;99.90;;;;;;7286683;19;20692;-86
2023/05/27 02:00:24;;;;;;;18.13;4.57;;;12.10;99.90;;;;;;7297383;19;20206;-86
2023/05/27 02:02:51;;;;;;;22.87;5.40;;;12.00;99.90;;;;;;7311134;19;20194;-86
2023/05/27 02:05:17;;;;;;;29.33;6.30;;;11.80;99.90;;;;;;7297697;19;20192;-86
2023/05/27 02:07:43;;;;;;;28.00;5.90;;;11.70;99.90;;;;;;7285548;19;20196;-86
2023/05/27 02:10:10;;;;;;;24.47;5.53;;;11.80;99.90;;;;;;7285712;19;20220;-86
2023/05/27 02:12:36;;;;;;;24.23;6.10;;;12.00;99.90;;;;;;7286358;19;20189;-85
2023/05/27 02:15:03;;;;;;;21.77;5.17;;;11.90;99.90;;;;;;7308412;19;20201;-86
2023/05/27 02:17:29;;;;;;;21.90;5.37;;;11.90;99.90;;;;;;7285375;19;20182;-85
2023/05/27 02:19:55;;;;;;;26.20;6.43;;;11.90;99.90;;;;;;7286964;19;20204;-86
2023/05/27 02:22:22;;;;;;;20.27;5.40;;;11.90;99.90;;;;;;7283938;19;20192;-86
2023/05/27 02:24:50;;;;;;;22.62;5.45;;;11.90;99.90;;;;;;7267997;19;2798026;-82
2023/05/27 02:27:16;;;;;;;19.37;5.60;;;11.90;99.90;;;;;;7288786;19;20276;-86
2023/05/27 02:29:42;;;;;;;23.13;5.50;;;11.80;99.90;;;;;;7288844;19;20188;-86
2023/05/27 02:32:08;;;;;;;25.13;5.63;;;11.80;99.90;;;;;;7287974;19;20207;-86
2023/05/27 02:34:37;;;;;;;24.07;5.60;;;11.70;99.90;;;;;;7302059;19;20191;-85
2023/05/27 02:37:04;;;;;;;27.43;5.93;;;11.60;99.90;;;;;;7303388;19;20195;-82
2023/05/27 02:39:31;;;;;;;24.47;5.73;;;11.40;99.90;;;;;;7310658;19;20189;-86
2023/05/27 02:41:56;;;;;;;27.63;6.60;;;11.50;99.90;;;;;;7287416;19;20190;-86
2023/05/27 02:44:23;;;;;;;19.60;5.37;;;11.40;99.90;;;;;;7288193;19;20315;-86
2023/05/27 02:46:49;;;;;;;28.53;6.20;;;11.30;99.90;;;;;;7288826;19;20195;-86
2023/05/27 02:49:16;;;;;;;25.40;6.00;;;11.20;99.90;;;;;;7288142;19;20259;-86
2023/05/27 02:51:42;;;;;;;30.20;5.50;;;11.10;99.90;;;;;;7285403;19;20249;-86
2023/05/27 02:54:08;;;;;;;25.17;5.83;;;11.20;99.90;;;;;;7288677;19;20195;-86
2023/05/27 02:56:34;;;;;;;30.47;6.63;;;11.30;99.90;;;;;;7299311;19;20191;-85
2023/05/27 02:58:59;;;;;;;22.47;6.40;;;11.30;99.90;;;;;;7303945;19;20194;-86
2023/05/27 03:01:25;;;;;;;24.63;6.03;;;11.30;99.90;;;;;;7288062;19;20181;-86
2023/05/27 03:03:52;;;;;;;25.03;6.67;;;11.20;99.90;;;;;;7285955;19;20197;-86
2023/05/27 03:06:18;;;;;;;24.87;6.27;;;11.10;99.90;;;;;;7287560;19;20191;-86
2023/05/27 03:08:44;;;;;;;23.13;6.47;;;11.10;99.90;;;;;;7288264;19;20270;-86
2023/05/27 03:11:09;;;;;;;28.83;6.20;;;11.10;99.90;;;;;;7285665;19;20250;-86
2023/05/27 03:13:35;;;;;;;25.70;5.97;;;11.20;99.90;;;;;;7287562;19;20319;-85
2023/05/27 03:16:01;;;;;;;24.03;5.67;;;11.20;99.90;;;;;;7308524;19;20251;-86
2023/05/27 03:18:26;;;;;;;23.57;6.80;;;11.10;99.90;;;;;;7286733;19;20249;-86
2023/05/27 03:20:52;;;;;;;26.63;6.53;;;11.10;99.90;;;;;;7287695;19;20207;-86
2023/05/27 03:23:18;;;;;;;23.53;6.80;;;11.10;99.90;;;;;;7285812;19;20572;-86
2023/05/27 03:25:45;;;;;;;24.33;5.77;;;11.10;99.90;;;;;;7285948;19;20267;-86
2023/05/27 03:28:11;;;;;;;27.93;6.60;;;11.30;99.90;;;;;;7284979;19;20235;-86
2023/05/27 03:30:37;;;;;;;25.13;6.50;;;11.30;99.90;;;;;;7285620;19;20612;-85
2023/05/27 03:33:03;;;;;;;27.67;6.23;;;11.20;99.90;;;;;;7302709;19;20188;-84
2023/05/27 03:35:34;;;;;;;27.67;6.37;;;11.00;99.90;;;;;;7291999;19;20187;-85
2023/05/27 03:38:00;;;;;;;25.97;6.10;;;10.90;99.90;;;;;;7307799;19;20183;-86
2023/05/27 03:40:26;;;;;;;26.90;7.03;;;10.90;99.90;;;;;;7286286;19;20187;-86
2023/05/27 03:42:53;;;;;;;26.00;6.63;;;10.80;99.90;;;;;;7286743;19;20181;-86
2023/05/27 03:45:21;;;;;;;32.97;7.00;;;10.70;99.90;;;;;;7287090;19;20638;-86
2023/05/27 03:47:47;;;;;;;28.97;6.40;;;10.80;99.90;;;;;;7287393;19;20217;-86
2023/05/27 03:50:14;;;;;;;25.63;6.73;;;11.00;99.90;;;;;;7285365;19;20203;-87
2023/05/27 03:52:40;;;;;;;25.10;6.37;;;10.90;99.90;;;;;;7286300;19;20189;-85
2023/05/27 03:55:06;;;;;;;30.80;6.47;;;10.80;99.90;;;;;;7283632;19;20661;-85
2023/05/27 03:57:33;;;;;;;24.97;6.83;;;10.80;99.90;;;;;;7305530;19;20202;-81
2023/05/27 03:59:59;;;;;;;24.70;6.77;;;10.80;99.90;;;;;;7307075;19;20531;-86
2023/05/27 04:02:25;;;;;;;27.37;6.40;;;10.70;99.90;;;;;;7293183;19;20191;-86
2023/05/27 04:04:52;;;;;;;29.47;7.80;;;10.80;99.90;;;;;;7291678;19;20230;-86
2023/05/27 04:07:20;;;;;;;25.70;6.57;;;10.80;99.90;;;;;;7289322;19;20194;-86
2023/05/27 04:09:45;;;;;;;25.07;6.73;;;10.90;99.90;;;;;;7284147;19;20190;-86
2023/05/27 04:12:11;;;;;;;29.53;7.73;;;11.00;99.90;;;;;;7287150;19;20207;-86
2023/05/27 04:14:37;;;;;;;25.87;6.40;;;10.90;99.90;;;;;;7285858;19;20244;-85
2023/05/27 04:17:03;;;;;;;28.27;6.80;;;10.90;99.90;;;;;;7306935;19;20186;-86
2023/05/27 04:19:28;;;;;;;23.47;6.47;;;11.00;99.90;;;;;;7287711;19;20184;-86
2023/05/27 04:21:54;;;;;;;25.57;6.87;;;11.00;99.90;;;;;;7285858;19;20688;-86
2023/05/27 04:24:20;;;;;;;26.37;6.93;;;11.00;99.90;;;;;;7283998;19;20189;-86
2023/05/27 04:26:46;;;;;;;25.67;6.63;;;11.00;99.90;;;;;;7286566;19;20191;-86
2023/05/27 04:29:15;;;;;;;22.73;6.47;;;11.10;99.90;;;;;;7284975;19;20208;-86
2023/05/27 04:31:42;;;;;;;24.60;6.40;;;11.20;99.90;;;;;;7286457;19;20659;-86
2023/05/27 04:34:15;;;;;;;30.03;7.07;;;11.30;99.90;;;;;;7286119;19;20213;-86
2023/05/27 04:36:42;;;;;;;28.07;6.80;;;11.40;99.90;;;;;;7284736;19;20189;-86
2023/05/27 04:39:11;;;;;;;25.43;6.60;;;11.60;99.90;;;;;;7284228;19;20218;-86
2023/05/27 04:41:41;;;;;;;29.33;6.53;;;11.90;99.90;;;;;;7284031;19;20202;-86
2023/05/27 04:44:12;;;;;;;21.13;5.83;;;12.30;99.90;;;;;;7285676;19;20192;-86
2023/05/27 04:46:43;;;;;;;24.57;6.33;;;12.90;99.90;;;;;;7283808;19;20648;-86
2023/05/27 04:49:10;;;;;;;21.03;5.80;;;13.40;99.90;;;;;;7285652;19;20190;-86
2023/05/27 04:51:36;;;;;;;22.23;5.47;;;13.70;99.90;;;;;;7283310;19;20513;-86
2023/05/27 04:54:02;;;;;;;19.73;6.00;;;14.10;99.90;;;;;;7308279;19;20645;-86
2023/05/27 04:56:28;;;;;;;24.03;6.00;;;14.40;99.90;;;;;;7284131;19;20249;-86
2023/05/27 04:58:55;;;;;;;22.27;6.13;;;14.50;99.90;;;;;;7283860;19;20537;-87
2023/05/27 05:01:27;;;;;;;28.27;6.17;;;14.70;99.90;;;;;;7284795;19;20497;-86
2023/05/27 05:04:12;;;;;;;24.83;6.00;;;14.90;99.90;;;;;;7284273;19;20187;-86
2023/05/27 05:06:43;;;;;;;23.30;5.77;;;15.30;99.90;;;;;;7183958;19;2004426;-87
2023/05/27 05:09:11;;;;;;;17.83;5.27;;;16.10;99.90;;;;;;7285309;19;20186;-86
2023/05/27 05:11:37;;;;;;;18.23;4.97;;;16.50;99.90;;;;;;7282906;19;20196;-85
2023/05/27 05:14:03;;;;;;;22.33;6.00;;;17.30;99.90;;;;;;7305768;19;20203;-86
2023/05/27 05:16:29;;;;;;;18.63;5.97;;;17.60;99.90;;;;;;7285187;19;20221;-86
2023/05/27 05:18:55;;;;;;;19.30;5.77;;;17.70;99.90;;;;;;7282965;19;20197;-84
2023/05/27 05:21:22;;;;;;;22.73;5.77;;;17.70;99.90;;;;;;7282711;19;20193;-82
2023/05/27 05:23:48;;;;;;;22.23;6.30;;;17.80;99.90;;;;;;7282559;19;20252;-84
2023/05/27 05:26:14;;;;;;;24.57;6.17;;;17.90;99.90;;;;;;7283417;19;20709;-84
2023/05/27 05:28:43;;;;;;;21.23;5.70;;;18.00;99.90;;;;;;7282527;19;20188;-84
2023/05/27 05:31:10;;;;;;;26.10;6.40;;;18.70;99.90;;;;;;7283284;19;20185;-84
2023/05/27 05:33:36;;;;;;;21.67;5.93;;;18.80;99.90;;;;;;7282886;19;20187;-83
2023/05/27 05:36:03;;;;;;;23.20;6.03;;;18.60;99.90;;;;;;7303099;19;20780;-85
2023/05/27 05:38:39;;;;;;;21.40;6.30;;;18.90;99.90;;;;;;7178939;19;2004870;-84
2023/05/27 05:41:05;;;;;;;21.87;6.33;;;19.20;99.90;;;;;;7293422;19;20189;-83
2023/05/27 05:43:33;;;;;;;23.73;6.17;;;19.40;99.90;;;;;;7304152;19;20188;-84
2023/05/27 05:46:01;;;;;;;22.80;5.87;;;19.60;99.90;;;;;;7283542;19;20185;-86
2023/05/27 05:48:27;;;;;;;21.53;6.23;;;19.70;99.90;;;;;;7281361;19;20188;-86
2023/05/27 05:50:53;;;;;;;23.03;6.70;;;18.40;99.90;;;;;;7283209;19;20205;-86
2023/05/27 05:53:19;;;;;;;19.83;6.10;;;18.30;99.90;;;;;;7288941;19;20657;-86
2023/05/27 05:55:45;;;;;;;20.73;5.50;;;18.70;99.90;;;;;;7288688;19;20181;-86
2023/05/27 05:58:12;;;;;;;24.00;6.00;;;18.80;99.90;;;;;;7286500;19;20268;-85
2023/05/27 06:00:37;;;;;;;22.53;6.80;;;18.60;99.90;;;;;;7290460;19;20239;-85
2023/05/27 06:03:27;;;;;;;24.90;6.43;;;18.40;99.90;;;;;;7289465;19;20196;-85
2023/05/27 06:05:56;;;;;;;22.77;6.33;;;18.20;99.90;;;;;;7288487;19;20260;-85
2023/05/27 06:08:22;;;;;;;21.40;6.47;;;18.40;99.90;;;;;;7290116;19;20189;-85
2023/05/27 06:10:58;;;;;;;23.87;6.33;;;19.00;99.90;;;;;;7289260;19;20648;-85
2023/05/27 06:13:24;;;;;;;19.23;6.27;;;18.60;99.90;;;;;;7291459;19;20255;-85
2023/05/27 06:15:52;;;;;;;21.13;5.90;;;18.60;99.90;;;;;;7288794;19;20185;-85
2023/05/27 06:18:18;;;;;;;22.13;6.30;;;18.90;99.90;;;;;;7286397;19;20188;-85
2023/05/27 06:20:43;;;;;;;21.30;6.47;;;18.60;99.90;;;;;;7290237;19;20189;-84
2023/05/27 06:23:09;;;;;;;21.20;6.60;;;18.70;99.90;;;;;;7289314;19;20185;-84
2023/05/27 06:26:04;;;;;;;22.77;7.20;;;18.70;99.90;;;;;;7277739;19;20608;-84
2023/05/27 06:28:36;;;;;;;21.03;5.80;;;18.40;99.90;;;;;;7288478;19;20563;-84
2023/05/27 06:31:02;;;;;;;23.93;6.30;;;18.30;99.90;;;;;;7310137;19;20223;-84
2023/05/27 06:33:28;;;;;;;24.57;6.00;;;19.00;99.90;;;;;;7288717;19;20267;-85
2023/05/27 06:35:54;;;;;;;23.00;6.67;;;19.30;99.90;;;;;;7289387;19;20205;-85
2023/05/27 06:38:20;;;;;;;21.80;6.47;;;19.30;99.90;;;;;;7287488;19;20185;-84
2023/05/27 06:40:49;;;;;;;19.83;5.93;;;19.20;99.90;;;;;;7289276;19;20213;-85
2023/05/27 06:43:15;;;;;;;26.93;6.40;;;18.80;99.90;;;;;;7288265;19;20188;-85
2023/05/27 06:45:54;;;;;;;20.87;5.90;;;18.80;99.90;;;;;;7288496;19;20538;-85
2023/05/27 06:48:31;;;;;;;19.90;5.80;;;18.50;99.90;;;;;;7286799;19;20243;-85
2023/05/27 06:50:56;;;;;;;22.93;6.57;;;18.40;99.90;;;;;;7285767;19;20205;-85
2023/05/27 06:53:23;;;;;;;25.43;6.50;;;18.50;99.90;;;;;;7286689;19;20200;-85
2023/05/27 06:55:56;;;;;;;23.03;6.10;;;19.00;99.90;;;;;;7288033;19;20188;-86
2023/05/27 06:58:45;;;;;;;20.80;6.30;;;19.20;99.90;;;;;;7183516;19;2004640;-84
2023/05/27 07:01:14;;;;;;;21.77;6.63;;;19.50;99.90;;;;;;7286914;19;20191;-85
2023/05/27 07:03:46;;;;;;;20.37;6.70;;;19.80;99.90;;;;;;7283485;19;20215;-85
2023/05/27 07:06:16;;;;;;;18.70;6.33;;;20.50;99.90;;;;;;7287344;19;20212;-86
2023/05/27 07:08:48;;;;;;;19.10;5.97;;;20.90;99.90;;;;;;7286479;19;20184;-86
2023/05/27 07:11:23;;;;;;;25.93;6.60;;;21.50;99.90;;;;;;7286318;19;20273;-85
2023/05/27 07:13:51;;;;;;;20.80;6.20;;;22.20;99.90;;;;;;7287390;19;20189;-85
2023/05/27 07:16:21;;;;;;;22.00;6.20;;;22.70;99.90;;;;;;7288700;19;20205;-85
2023/05/27 07:18:47;;;;;;;19.20;6.47;;;22.60;99.90;;;;;;7286845;19;20203;-85
2023/05/27 07:21:14;;;;;;;20.50;6.13;;;22.70;99.90;;;;;;7286519;19;20196;-85
2023/05/27 07:23:40;;;;;;;19.83;6.03;;;23.00;99.90;;;;;;7285221;19;21081;-85
2023/05/27 07:26:30;;;;;;;21.07;6.33;;;24.00;99.90;;;;;;7288870;19;20197;-85
2023/05/27 07:28:58;;;;;;;17.13;5.82;;;24.70;99.90;;;;;;7284122;19;20186;-85
2023/05/27 07:31:42;;;;;;;20.17;6.17;;;25.40;99.90;;;;;;7184774;19;2004577;-85
2023/05/27 07:34:13;;;;;;;19.27;5.72;;;25.70;99.90;;;;;;7287292;19;20200;-86
2023/05/27 07:36:39;;;;;;;18.08;5.65;;;26.10;99.90;;;;;;7286103;19;20195;-85
2023/05/27 07:39:04;;;;;;;16.85;5.88;;;25.70;98.00;;;;;;7298722;19;20208;-85
2023/05/27 07:41:30;;;;;;;19.70;6.13;;;25.40;97.60;;;;;;7307656;19;20185;-86
2023/05/27 07:43:59;;;;;;;19.25;5.75;;;24.90;98.60;;;;;;7287385;19;20281;-87
2023/05/27 07:46:25;;;;;;;17.60;5.75;;;24.60;98.50;;;;;;7288024;19;20606;-87
2023/05/27 07:48:51;;;;;;;18.67;5.53;;;24.50;98.10;;;;;;7287726;19;20192;-88
2023/05/27 07:51:17;;;;;;;20.43;6.03;;;25.10;98.40;;;;;;7287598;19;20557;-87
2023/05/27 07:53:43;;;;;;;17.40;5.78;;;25.30;98.70;;;;;;7288697;19;20557;-88
2023/05/27 07:56:09;;;;;;;19.58;5.90;;;25.50;96.20;;;;;;7286330;19;20205;-87
2023/05/27 07:58:34;;;;;;;19.58;5.55;;;25.50;95.80;;;;;;7300365;19;20200;-88
2023/05/27 08:01:09;;;;;;;24.08;5.75;;;25.20;96.20;;;;;;7287548;19;20184;-87
2023/05/27 08:03:36;;;;;;;19.92;6.40;;;25.10;96.40;;;;;;7286779;19;20189;-87
2023/05/27 08:06:17;;;;;;;20.80;6.05;;;25.20;96.20;;;;;;7288684;19;20595;-88
2023/05/27 08:08:58;;;;;;;17.48;5.47;;;26.00;96.70;;;;;;7286584;19;20191;-89
2023/05/27 08:11:50;;;;;;;19.33;6.03;;;26.40;93.60;;;;;;7183913;19;2004723;-88
2023/05/27 08:14:31;;;;;;;20.15;5.85;;;26.20;94.00;;;;;;7287393;19;20526;-88
2023/05/27 08:17:32;;;;;;;20.88;5.47;;;25.60;94.50;;;;;;7183874;19;2004639;-88
2023/05/27 08:20:25;;;;;;;17.85;5.35;;;25.20;94.30;;;;;;7186048;19;2004790;-88
2023/05/27 08:23:05;;;;;;;18.35;5.32;;;24.90;94.50;;;;;;7275455;19;20197;-87
2023/05/27 08:26:11;;;;;;;18.35;5.57;;;25.00;94.60;;;;;;7182956;19;2004657;-87
2023/05/27 08:28:52;;;;;;;22.02;5.38;;;26.40;93.50;;;;;;7285963;19;20200;-89
2023/05/27 08:31:38;;;;;;;16.08;5.65;;;27.70;92.20;;;;;;7263460;19;20700;-87
2023/05/27 08:34:04;;;;;;;18.20;5.82;;;27.90;88.90;;;;;;7308783;19;20200;-83
2023/05/27 08:36:31;;;;;;;20.58;5.85;;;28.10;90.00;;;;;;7299402;19;20193;-87
2023/05/27 08:38:58;;;;;;;19.08;5.78;;;29.50;87.50;;;;;;7284434;19;20189;-88
2023/05/27 08:41:29;;;;;;;20.17;6.80;;;30.20;84.50;;;;;;7286297;19;20720;-85
2023/05/27 08:43:57;;;;;;;17.80;5.68;;;31.60;78.70;;;;;;7284383;19;20184;-85
2023/05/27 08:46:25;;;;;;;20.52;5.85;;;29.80;75.00;;;;;;7285466;19;20193;-84
2023/05/27 08:48:53;;;;;;;17.98;5.60;;;29.10;77.70;;;;;;7283940;19;20202;-85
2023/05/27 08:51:18;;;;;;;17.85;6.05;;;28.70;79.40;;;;;;7280256;19;20264;-85
2023/05/27 08:53:47;;;;;;;18.35;5.78;;;29.40;79.20;;;;;;7285312;19;20218;-84
2023/05/27 08:56:21;;;;;;;17.45;5.53;;;28.40;78.60;;;;;;7283565;19;20823;-84
2023/05/27 08:58:47;;;;;;;20.48;5.70;;;28.30;80.30;;;;;;7283596;19;20196;-85
2023/05/27 09:01:17;;;;;;;18.20;5.78;;;28.80;80.70;;;;;;7284436;19;20253;-84
2023/05/27 09:03:44;;;;;;;16.75;6.00;;;28.80;79.40;;;;;;7284349;19;20189;-85
2023/05/27 09:06:10;;;;;;;18.40;5.70;;;28.60;80.20;;;;;;7284245;19;20196;-84
2023/05/27 09:08:35;;;;;;;18.55;5.95;;;28.80;79.00;;;;;;7288412;19;20641;-85
2023/05/27 09:11:02;;;;;;;19.20;5.68;;;28.70;78.80;;;;;;7304933;19;20210;-85
2023/05/27 09:13:29;;;;;;;18.88;6.45;;;28.90;79.20;;;;;;7285121;19;20180;-85
2023/05/27 09:16:02;;;;;;;19.80;5.75;;;28.70;77.40;;;;;;7284094;19;20190;-85
2023/05/27 09:18:29;;;;;;;19.60;6.40;;;29.10;80.00;;;;;;7282851;19;20201;-85
2023/05/27 09:20:56;;;;;;;21.27;5.75;;;29.20;76.20;;;;;;7285071;19;20182;-85
2023/05/27 09:23:22;;;;;;;17.02;5.53;;;29.50;76.40;;;;;;7284316;19;20641;-85
2023/05/27 09:25:48;;;;;;;18.92;5.93;;;30.00;76.40;;;;;;7284043;19;20199;-85
2023/05/27 09:28:23;;;;;;;20.45;6.15;;;31.20;75.20;;;;;;7288775;19;20180;-85
2023/05/27 09:31:09;;;;;;;17.73;5.55;;;30.20;72.70;;;;;;7290432;19;20188;-85
2023/05/27 09:33:37;;;;;;;15.57;5.97;;;30.90;73.50;;;;;;7284477;19;20196;-84
2023/05/27 09:36:04;;;;;;;19.52;6.28;;;31.50;72.90;;;;;;7312466;19;20185;-85
2023/05/27 09:38:31;;;;;;;21.88;6.13;;;31.00;71.40;;;;;;7289707;19;20197;-84
2023/05/27 09:40:58;;;;;;;18.98;5.80;;;30.10;71.60;;;;;;7290234;19;20398;-85
2023/05/27 09:43:27;;;;;;;18.10;5.88;;;29.40;72.10;;;;;;7288915;19;20304;-85
2023/05/27 09:45:59;;;;;;;19.58;5.80;;;29.10;75.10;;;;;;7291173;19;20192;-85
2023/05/27 09:48:26;;;;;;;17.95;5.15;;;29.00;77.70;;;;;;7288764;19;20701;-85
2023/05/27 09:50:53;;;;;;;15.90;5.65;;;29.00;74.30;;;;;;7288747;19;20222;-85
2023/05/27 09:53:21;;;;;;;17.40;5.53;;;30.40;74.10;;;;;;7290775;19;20189;-85
2023/05/27 09:55:48;;;;;;;17.63;5.70;;;29.90;72.40;;;;;;7290588;19;20193;-84
2023/05/27 09:58:15;;;;;;;21.67;5.97;;;29.40;72.70;;;;;;7295792;19;20228;-84
2023/05/27 10:00:44;;;;;;;18.80;5.38;;;29.50;72.60;;;;;;7297332;19;20184;-84
2023/05/27 10:03:10;;;;;;;16.42;5.15;;;29.10;72.90;;;;;;7296094;19;20290;-85
2023/05/27 10:05:36;;;;;;;18.50;5.55;;;29.40;73.20;;;;;;7294998;19;20577;-84
2023/05/27 10:08:03;;;;;;;15.60;4.82;;;30.60;72.10;;;;;;7312126;19;20210;-85
2023/05/27 10:10:29;;;;;;;18.02;5.55;;;30.80;71.30;;;;;;7293186;19;20182;-84
2023/05/27 10:12:56;;;;;;;21.35;5.93;;;31.40;71.70;;;;;;7293717;19;20545;-85
2023/05/27 10:15:29;;;;;;;18.90;5.82;;;31.30;71.00;;;;;;7289526;19;20308;-85
2023/05/27 10:17:56;;;;;;;20.30;5.20;;;30.50;71.50;;;;;;7288738;19;20206;-85
2023/05/27 10:20:37;;;;;;;18.27;5.40;;;30.40;70.60;;;;;;7289729;19;20540;-85
2023/05/27 10:23:14;;;;;;;20.50;5.53;;;31.20;71.80;;;;;;7289286;19;20199;-85
2023/05/27 10:25:50;;;;;;;16.65;5.22;;;31.40;68.10;;;;;;7187161;19;2005124;-84
2023/05/27 10:28:29;;;;;;;19.00;5.35;;;31.70;69.00;;;;;;7289332;19;20193;-85
2023/05/27 10:31:08;;;;;;;17.23;5.20;;;33.10;66.30;;;;;;7289366;19;20201;-85
2023/05/27 10:33:36;;;;;;;16.20;5.15;;;32.20;63.60;;;;;;7291017;19;20185;-86
2023/05/27 10:36:11;;;;;;;18.45;4.82;;;30.50;66.30;;;;;;7288284;19;20185;-86
2023/05/27 10:38:38;;;;;;;15.73;4.57;;;30.60;65.60;;;;;;7265973;19;20181;-84
2023/05/27 10:41:06;;;;;;;18.88;4.88;;;30.80;65.20;;;;;;7311415;19;20624;-84
2023/05/27 10:43:33;;;;;;;16.70;4.82;;;30.50;67.00;;;;;;7286175;19;20564;-84
2023/05/27 10:46:05;;;;;;;14.55;4.85;;;30.20;67.30;;;;;;7290867;19;20232;-85
2023/05/27 10:48:33;;;;;;;17.30;4.63;;;30.70;68.30;;;;;;7288661;19;20593;-86
2023/05/27 10:50:59;;;;;;;15.85;4.70;;;30.90;67.50;;;;;;7286896;19;20189;-84
2023/05/27 10:53:29;;;;;;;15.90;4.70;;;30.80;64.40;;;;;;7288160;19;20198;-85
2023/05/27 10:55:58;;;;;;;17.42;4.82;;;31.20;65.10;;;;;;7288929;19;20653;-85
2023/05/27 10:58:24;;;;;;;16.65;5.18;;;32.20;67.70;;;;;;7287859;19;20201;-85
2023/05/27 11:00:52;;;;;;;16.30;4.72;;;32.40;65.60;;;;;;7288008;19;20185;-84
2023/05/27 11:03:24;;;;;;;18.33;5.38;;;32.70;65.10;;;;;;7288559;19;20189;-85
2023/05/27 11:06:03;;;;;;;19.88;4.85;;;32.90;61.20;;;;;;7289628;19;20863;-86
2023/05/27 11:08:33;;;;;;;14.43;4.55;;;32.40;62.70;;;;;;7288614;19;20189;-85
2023/05/27 11:11:00;;;;;;;17.40;4.88;;;32.40;63.40;;;;;;7287226;19;20189;-84
2023/05/27 11:13:31;;;;;;;17.80;4.57;;;32.10;61.90;;;;;;7287911;19;20188;-85
2023/05/27 11:15:57;;;;;;;17.02;5.05;;;32.00;62.50;;;;;;7286893;19;20193;-85
2023/05/27 11:18:23;;;;;;;21.23;5.05;;;31.80;62.70;;;;;;7286475;19;20189;-85
2023/05/27 11:20:48;;;;;;;17.05;4.97;;;31.40;62.70;;;;;;7287685;19;20181;-84
2023/05/27 11:23:14;;;;;;;15.45;4.63;;;31.60;63.70;;;;;;7286986;19;20199;-85
2023/05/27 11:25:43;;;;;;;13.00;4.15;;;31.90;62.20;;;;;;7286601;19;20196;-85
2023/05/27 11:28:19;;;;;;;13.57;3.60;;;31.80;57.20;;;;;;7286764;19;20181;-85
2023/05/27 11:30:45;;;;;;;14.65;4.00;;;31.50;56.40;;;;;;7284998;19;20639;-84
2023/05/27 11:33:10;;;;;;;14.90;4.43;;;31.10;58.40;;;;;;7287286;19;20188;-84
2023/05/27 11:35:36;;;;;;;16.75;4.25;;;30.80;59.20;;;;;;7287079;19;20184;-84
2023/05/27 11:38:02;;;;;;;12.75;3.92;;;29.50;58.00;;;;;;7307616;19;20188;-85
2023/05/27 11:40:38;;;;;;;12.05;3.95;;;29.50;59.60;;;;;;7286757;19;20181;-85
2023/05/27 11:43:04;;;;;;;13.85;4.32;;;29.60;60.80;;;;;;7287763;19;20184;-85
2023/05/27 11:45:35;;;;;;;12.23;4.32;;;30.10;60.00;;;;;;7287403;19;20205;-84
2023/05/27 11:48:02;;;;;;;14.80;4.13;;;30.30;58.80;;;;;;7288414;19;20209;-85
2023/05/27 11:50:28;;;;;;;12.00;3.80;;;31.10;59.00;;;;;;7284807;19;20648;-85
2023/05/27 11:52:56;;;;;;;12.95;4.22;;;31.40;56.20;;;;;;7287561;19;20184;-85
2023/05/27 11:55:22;;;;;;;13.70;4.20;;;30.80;57.40;;;;;;7286782;19;20200;-85
2023/05/27 11:57:49;;;;;;;14.77;3.88;;;30.30;57.20;;;;;;7286209;19;20224;-85
2023/05/27 12:00:17;;;;;;;13.77;4.00;;;30.30;56.30;;;;;;7287829;19;20195;-84
2023/05/27 12:02:43;;;;;;;16.85;4.43;;;30.40;57.70;;;;;;7285543;19;20195;-85
2023/05/27 12:05:10;;;;;;;14.68;4.32;;;30.60;59.30;;;;;;7284682;19;20517;-85
2023/05/27 12:07:39;;;;;;;14.45;4.05;;;30.10;57.90;;;;;;7293488;19;20272;-84
2023/05/27 12:10:08;;;;;;;16.45;4.45;;;29.30;59.10;;;;;;7300055;19;20220;-84
2023/05/27 12:12:34;;;;;;;14.63;4.05;;;28.00;59.90;;;;;;7309713;19;20254;-85
2023/05/27 12:15:01;;;;;;;19.15;4.53;;;27.00;60.00;;;;;;7286131;19;20705;-84
2023/05/27 12:17:26;;;;;;;13.80;4.18;;;26.60;62.80;;;;;;7285178;19;20185;-84
2023/05/27 12:19:52;;;;;;;13.68;3.90;;;26.00;63.70;;;;;;7286941;19;20682;-84
2023/05/27 12:22:18;;;;;;;13.35;4.30;;;25.70;64.50;;;;;;7285886;19;20189;-84
2023/05/27 12:24:44;;;;;;;16.92;3.55;;;25.40;64.00;;;;;;7285462;19;20660;-84
2023/05/27 12:27:09;;;;;;;16.92;3.97;;;25.10;64.30;;;;;;7285569;19;20550;-84
2023/05/27 12:29:35;;;;;;;13.90;3.58;;;25.10;65.80;;;;;;7299414;19;20285;-86
2023/05/27 12:32:01;;;;;;;12.32;3.83;;;25.10;66.10;;;;;;7300404;19;20623;-85
2023/05/27 12:34:26;;;;;;;15.77;3.95;;;25.20;64.50;;;;;;7285792;19;20715;-86
2023/05/27 12:36:52;;;;;;;13.27;3.83;;;25.00;64.00;;;;;;7284166;19;20261;-87
2023/05/27 12:39:19;;;;;;;15.38;3.45;;;24.90;63.00;;;;;;7286339;19;20196;-87
2023/05/27 12:41:45;;;;;;;13.15;3.70;;;24.70;66.10;;;;;;7283875;19;20550;-86
2023/05/27 12:44:11;;;;;;;16.58;3.95;;;24.50;65.80;;;;;;7284338;19;20188;-86